Time;durP1;ratioP1;P1;durP2;ratioP2;P2;SDS_P1;SDS_P2;PMS_P1;PMS_P2;Temp;Humidity;BMP_temperature;BMP_pressure;BME280_temperature;BME280_humidity;BME280_pressure;Samples;Min_cycle;Max_cycle;Signal;HPM_P1;HPM_P2
2022/04/11 00:00:00;;;;;;;4.47;4.00;;;;;;;6.48;100.00;99751.19;5073081;28;20206;-78
2022/04/11 00:02:27;;;;;;;4.97;4.17;;;;;;;6.60;100.00;99766.09;5073730;28;20277;-76
2022/04/11 00:04:54;;;;;;;4.80;4.33;;;;;;;6.61;100.00;99762.66;5073388;28;20194;-77
2022/04/11 00:07:20;;;;;;;4.17;3.83;;;;;;;6.53;100.00;99774.50;5073491;28;20199;-76
2022/04/11 00:09:48;;;;;;;4.07;3.77;;;;;;;6.80;100.00;99790.63;5073385;28;20227;-76
2022/04/11 00:12:14;;;;;;;5.37;4.13;;;;;;;6.74;100.00;99795.66;5072652;28;20642;-77
2022/04/11 00:14:41;;;;;;;4.67;4.27;;;;;;;6.96;100.00;99803.06;5073429;28;20202;-77
2022/04/11 00:17:09;;;;;;;5.13;4.30;;;;;;;7.08;100.00;99805.94;5073135;28;20234;-76
2022/04/11 00:19:36;;;;;;;9.97;5.13;;;;;;;7.04;100.00;99814.44;5035958;28;20675;-77
2022/04/11 00:22:03;;;;;;;8.43;5.80;;;;;;;6.99;100.00;99818.63;5072574;28;20562;-76
2022/04/11 00:24:30;;;;;;;9.27;6.30;;;;;;;7.09;100.00;99820.59;5072978;28;20207;-77
2022/04/11 00:26:57;;;;;;;11.83;6.53;;;;;;;7.02;100.00;99803.22;5072909;28;20640;-76
2022/04/11 00:29:24;;;;;;;10.40;6.70;;;;;;;7.07;100.00;99829.97;5073331;28;20273;-76
2022/04/11 00:31:51;;;;;;;12.20;6.47;;;;;;;7.11;100.00;99823.19;5072734;28;20249;-76
2022/04/11 00:34:19;;;;;;;15.27;7.67;;;;;;;7.14;100.00;99829.28;5073180;28;20213;-76
2022/04/11 00:36:46;;;;;;;8.30;6.55;;;;;;;7.09;100.00;99833.47;5073577;28;20198;-76
2022/04/11 00:39:12;;;;;;;11.02;6.75;;;;;;;7.24;100.00;99844.13;5072775;28;20199;-76
2022/04/11 00:41:39;;;;;;;5.90;5.30;;;;;;;7.25;100.00;99842.44;5072777;28;20195;-76
2022/04/11 00:44:06;;;;;;;12.75;7.72;;;;;;;7.26;100.00;99833.88;5059780;28;20195;-76
2022/04/11 00:46:33;;;;;;;12.77;8.00;;;;;;;7.28;100.00;99838.22;5072535;28;20286;-77
2022/04/11 00:49:00;;;;;;;13.13;7.95;;;;;;;7.44;100.00;99868.72;5072629;28;20256;-77
2022/04/11 00:51:28;;;;;;;12.73;7.20;;;;;;;7.28;100.00;99834.78;5072737;28;20221;-77
2022/04/11 00:53:59;;;;;;;6.95;6.22;;;;;;;7.52;100.00;99878.34;5072696;28;20195;-77
2022/04/11 00:56:29;;;;;;;6.63;5.13;;;;;;;7.45;100.00;99878.19;5072093;28;20607;-77
2022/04/11 00:58:56;;;;;;;9.73;6.35;;;;;;;7.49;100.00;99881.75;5072217;28;20230;-77
2022/04/11 01:01:23;;;;;;;6.30;4.70;;;;;;;7.48;100.00;99891.19;5072415;28;20206;-77
2022/04/11 01:03:51;;;;;;;8.07;4.80;;;;;;;7.58;100.00;99893.97;5072588;28;20209;-77
2022/04/11 01:06:17;;;;;;;4.30;4.00;;;;;;;7.52;100.00;99889.53;5071983;28;20255;-77
2022/04/11 01:08:46;;;;;;;4.60;4.20;;;;;;;7.59;100.00;99901.75;5072695;28;20690;-77
2022/04/11 01:11:13;;;;;;;4.07;3.60;;;;;;;7.54;100.00;99902.47;5071961;28;20219;-77
2022/04/11 01:13:41;;;;;;;7.15;4.47;;;;;;;7.58;100.00;99909.44;5072118;28;20195;-77
2022/04/11 01:16:07;;;;;;;5.07;4.07;;;;;;;7.52;100.00;99914.47;5072016;28;20231;-77
2022/04/11 01:18:35;;;;;;;6.65;4.82;;;;;;;7.53;100.00;99911.91;5009528;28;20204;-77
2022/04/11 01:21:02;;;;;;;4.13;3.83;;;;;;;7.21;100.00;99898.22;5057538;28;20202;-77
2022/04/11 01:23:30;;;;;;;4.00;3.53;;;;;;;6.98;100.00;99919.97;5071916;28;20215;-77
2022/04/11 01:25:58;;;;;;;4.80;4.30;;;;;;;6.92;100.00;99924.97;5071789;28;20675;-77
2022/04/11 01:28:24;;;;;;;3.40;3.20;;;;;;;6.78;100.00;99931.41;5071744;28;20285;-76
2022/04/11 01:30:53;;;;;;;4.63;4.23;;;;;;;6.80;100.00;99940.09;5036529;28;20716;-78
2022/04/11 01:33:22;;;;;;;10.70;7.10;;;;;;;6.60;100.00;99936.94;5071847;28;20280;-77
2022/04/11 01:35:49;;;;;;;4.67;4.00;;;;;;;6.53;100.00;99926.44;5071818;28;20195;-78
2022/04/11 01:38:17;;;;;;;5.17;4.23;;;;;;;6.57;100.00;99925.66;5071712;28;20206;-77
2022/04/11 01:40:52;;;;;;;4.40;4.00;;;;;;;6.77;100.00;99945.16;5071781;28;20282;-77
2022/04/11 01:43:19;;;;;;;3.57;3.27;;;;;;;6.49;100.00;99934.06;5071549;28;20203;-77
2022/04/11 01:45:46;;;;;;;3.43;3.13;;;;;;;6.41;100.00;99952.69;5071902;28;20199;-77
2022/04/11 01:48:13;;;;;;;2.97;2.78;;;;;;;6.33;100.00;99952.47;5071431;28;20212;-77
2022/04/11 01:50:40;;;;;;;3.23;3.03;;;;;;;6.34;100.00;99959.38;5071685;28;20226;-77
2022/04/11 01:53:08;;;;;;;3.13;2.80;;;;;;;6.48;100.00;99968.38;5070719;28;20207;-77
2022/04/11 01:55:35;;;;;;;4.33;3.53;;;;;;;6.48;100.00;99967.50;5071693;28;20195;-77
2022/04/11 01:58:04;;;;;;;5.03;3.90;;;;;;;6.58;100.00;99978.94;5071148;28;20231;-76
2022/04/11 02:00:31;;;;;;;2.60;2.50;;;;;;;6.21;100.00;99959.81;5071439;28;20659;-77
2022/04/11 02:02:59;;;;;;;2.40;2.23;;;;;;;6.11;100.00;99970.66;5071104;28;20555;-76
2022/04/11 02:05:26;;;;;;;3.97;3.60;;;;;;;6.25;100.00;99979.69;5071830;28;20210;-76
2022/04/11 02:07:53;;;;;;;3.33;3.10;;;;;;;6.30;100.00;99978.13;5070896;28;20328;-76
2022/04/11 02:10:20;;;;;;;3.70;3.07;;;;;;;6.11;100.00;99973.25;5070761;28;20276;-77
2022/04/11 02:12:48;;;;;;;4.13;3.13;;;;;;;5.93;100.00;99941.78;5071280;28;20202;-78
2022/04/11 02:15:17;;;;;;;4.37;3.50;;;;;;;6.21;100.00;99964.97;5070986;28;20325;-78
2022/04/11 02:17:46;;;;;;;3.57;3.27;;;;;;;6.07;100.00;99991.97;5070000;28;20206;-77
2022/04/11 02:20:13;;;;;;;3.43;3.23;;;;;;;6.12;100.00;99993.00;5068226;28;20194;-77
2022/04/11 02:22:50;;;;;;;4.93;3.30;;;;;;;6.14;100.00;99983.63;5064136;28;20206;-78
2022/04/11 02:25:20;;;;;;;3.77;3.03;;;;;;;6.23;100.00;100001.94;5070978;28;20199;-76
2022/04/11 02:27:48;;;;;;;3.73;3.43;;;;;;;6.00;100.00;99987.47;5070780;28;20626;-76
2022/04/11 02:30:17;;;;;;;3.90;3.60;;;;;;;6.27;100.00;99998.66;5070458;28;20301;-78
2022/04/11 02:32:45;;;;;;;4.80;4.30;;;;;;;6.12;100.00;99997.28;5052424;28;20264;-76
2022/04/11 02:35:12;;;;;;;4.00;3.70;;;;;;;6.23;100.00;99996.78;5070647;28;20644;-77
2022/04/11 02:37:39;;;;;;;3.77;3.47;;;;;;;5.58;100.00;99926.91;5054696;28;20199;-77
2022/04/11 02:40:08;;;;;;;3.03;2.77;;;;;;;6.04;100.00;99999.63;5070573;28;20636;-76
2022/04/11 02:42:36;;;;;;;3.50;3.30;;;;;;;5.92;100.00;99994.94;5070770;28;20289;-76
2022/04/11 02:45:03;;;;;;;3.50;3.13;;;;;;;6.01;100.00;99985.78;5070606;28;20630;-76
2022/04/11 02:47:31;;;;;;;4.40;3.77;;;;;;;5.97;100.00;99993.41;5070585;28;20281;-77
2022/04/11 02:49:58;;;;;;;3.57;3.27;;;;;;;5.79;100.00;99989.34;5070407;28;20195;-76
2022/04/11 02:52:25;;;;;;;3.27;3.07;;;;;;;5.77;100.00;99996.13;5018695;28;20717;-76
2022/04/11 02:54:51;;;;;;;3.70;3.40;;;;;;;5.66;100.00;99980.34;5070330;28;20281;-76
2022/04/11 02:57:18;;;;;;;3.47;3.20;;;;;;;5.91;100.00;99997.47;5070215;28;20201;-76
2022/04/11 02:59:45;;;;;;;5.50;4.97;;;;;;;5.92;100.00;100009.53;5070964;28;20276;-75
2022/04/11 03:02:12;;;;;;;5.67;4.03;;;;;;;5.83;100.00;100010.06;5070455;28;20202;-77
2022/04/11 03:04:40;;;;;;;5.60;4.67;;;;;;;5.82;100.00;100012.56;5050703;28;20199;-79
2022/04/11 03:07:07;;;;;;;3.83;3.53;;;;;;;5.68;100.00;100024.09;5061715;28;20199;-78
2022/04/11 03:09:34;;;;;;;21.85;11.50;;;;;;;5.87;100.00;100003.34;5070287;28;20442;-76
2022/04/11 03:12:01;;;;;;;5.10;4.50;;;;;;;5.79;100.00;100020.19;5069872;28;20233;-78
2022/04/11 03:14:27;;;;;;;5.77;5.23;;;;;;;5.10;100.00;99921.88;5070093;28;20206;-77
2022/04/11 03:16:54;;;;;;;2.87;2.37;;;;;;;5.80;100.00;100019.38;5018554;28;20227;-77
2022/04/11 03:19:21;;;;;;;5.77;5.27;;;;;;;5.85;100.00;100013.53;5070285;28;20252;-77
2022/04/11 03:21:49;;;;;;;31.98;18.15;;;;;;;7.20;100.00;100012.53;5069740;28;20460;-77
2022/04/11 03:24:16;;;;;;;6.70;6.05;;;;;;;6.46;100.00;100002.63;5069523;28;20790;-77
2022/04/11 03:26:43;;;;;;;7.73;4.00;;;;;;;6.32;100.00;100015.09;5070038;28;20203;-77
2022/04/11 03:29:10;;;;;;;3.07;2.87;;;;;;;6.05;100.00;100021.06;5070560;28;20969;-77
2022/04/11 03:31:37;;;;;;;6.07;5.27;;;;;;;6.18;100.00;100026.66;5055466;28;20301;-78
2022/04/11 03:34:04;;;;;;;3.67;3.43;;;;;;;5.86;100.00;100029.91;5073944;28;20194;-77
2022/04/11 03:36:30;;;;;;;3.90;3.60;;;;;;;5.91;100.00;100043.81;5074087;28;20213;-80
2022/04/11 03:38:59;;;;;;;22.50;12.13;;;;;;;6.56;100.00;100014.09;5075539;28;20671;-78
2022/04/11 03:41:26;;;;;;;4.10;3.80;;;;;;;6.05;100.00;100039.09;5073829;28;20203;-78
2022/04/11 03:43:52;;;;;;;4.67;3.93;;;;;;;5.78;100.00;100031.34;5073983;28;20230;-79
2022/04/11 03:46:19;;;;;;;3.97;3.57;;;;;;;5.46;100.00;100014.78;5074074;28;20199;-79
2022/04/11 03:48:46;;;;;;;6.10;4.30;;;;;;;5.57;100.00;100048.59;5073667;28;20187;-80
2022/04/11 03:51:13;;;;;;;2.20;2.10;;;;;;;5.64;100.00;100050.53;5073557;28;20214;-78
2022/04/11 03:53:39;;;;;;;2.90;2.67;;;;;;;5.49;100.00;100067.19;5073300;28;20221;-78
2022/04/11 03:56:08;;;;;;;4.23;3.83;;;;;;;5.49;100.00;100028.63;5073591;28;20575;-79
2022/04/11 03:58:34;;;;;;;3.43;3.13;;;;;;;5.64;100.00;100073.69;5073511;28;20202;-81
2022/04/11 04:01:01;;;;;;;3.70;3.40;;;;;;;5.53;100.00;100052.75;5072892;28;20642;-79
2022/04/11 04:03:28;;;;;;;2.90;2.73;;;;;;;5.46;100.00;100082.53;5072944;28;20199;-86
2022/04/11 04:05:55;;;;;;;2.80;2.60;;;;;;;5.43;100.00;100078.97;5072494;28;20199;-86
2022/04/11 04:08:22;;;;;;;3.87;3.47;;;;;;;5.62;100.00;100085.63;5065366;28;20670;-85
2022/04/11 04:10:49;;;;;;;3.03;2.73;;;;;;;5.57;100.00;100087.16;5073229;28;20226;-83
2022/04/11 04:13:17;;;;;;;3.13;2.93;;;;;;;5.62;100.00;100090.78;5073220;28;20198;-82
2022/04/11 04:15:44;;;;;;;4.33;3.87;;;;;;;5.45;100.00;100093.66;5073542;28;20615;-84
2022/04/11 04:18:12;;;;;;;5.60;4.07;;;;;;;5.22;100.00;100053.38;5072554;28;20199;-84
2022/04/11 04:20:39;;;;;;;4.73;4.33;;;;;;;5.37;100.00;100061.66;5073519;28;20210;-80
2022/04/11 04:23:06;;;;;;;4.13;3.50;;;;;;;5.57;100.00;100098.31;5073074;28;20666;-80
2022/04/11 04:25:33;;;;;;;3.73;3.33;;;;;;;5.66;100.00;100097.78;5038224;28;20717;-80
2022/04/11 04:28:00;;;;;;;7.33;4.97;;;;;;;5.66;100.00;100101.22;5073329;28;20206;-80
2022/04/11 04:30:29;;;;;;;5.83;4.77;;;;;;;5.65;100.00;100098.59;5020864;28;20210;-81
2022/04/11 04:32:57;;;;;;;6.80;5.77;;;;;;;5.56;100.00;100078.59;5072764;28;20226;-79
2022/04/11 04:35:23;;;;;;;4.47;3.90;;;;;;;5.43;100.00;100109.81;5073951;28;20210;-80
2022/04/11 04:37:50;;;;;;;4.57;4.17;;;;;;;5.31;100.00;100078.56;5073870;28;20199;-81
2022/04/11 04:40:17;;;;;;;5.17;4.77;;;;;;;5.34;100.00;100110.38;5073345;28;20207;-81
2022/04/11 04:42:44;;;;;;;3.87;3.50;;;;;;;5.41;100.00;100127.78;5072939;28;20671;-79
2022/04/11 04:45:12;;;;;;;4.97;3.57;;;;;;;5.53;100.00;100131.63;5072688;28;20277;-79
2022/04/11 04:47:40;;;;;;;4.90;3.87;;;;;;;5.62;100.00;100106.22;5072308;28;20260;-81
2022/04/11 04:50:08;;;;;;;3.83;3.50;;;;;;;5.75;100.00;100134.97;5072535;28;20198;-80
2022/04/11 04:52:36;;;;;;;3.10;2.90;;;;;;;5.74;100.00;100140.09;5020886;28;20627;-80
2022/04/11 04:55:03;;;;;;;3.30;3.10;;;;;;;5.78;100.00;100149.66;5072927;28;20667;-79
2022/04/11 04:57:30;;;;;;;3.50;2.40;;;;;;;5.65;100.00;100147.47;5033733;28;20199;-81
2022/04/11 04:59:57;;;;;;;3.57;3.03;;;;;;;5.60;100.00;100154.16;5068048;28;20244;-80
2022/04/11 05:02:24;;;;;;;3.00;2.80;;;;;;;5.42;100.00;100129.50;5072557;28;20207;-80
2022/04/11 05:04:52;;;;;;;2.80;2.60;;;;;;;5.60;100.00;100144.72;5072677;28;20690;-80
2022/04/11 05:07:19;;;;;;;2.83;2.63;;;;;;;5.70;100.00;100135.66;5072176;28;20202;-82
2022/04/11 05:09:45;;;;;;;6.97;4.40;;;;;;;5.70;100.00;100138.22;5072259;28;20277;-80
2022/04/11 05:12:12;;;;;;;3.97;3.63;;;;;;;5.71;100.00;100145.09;5071872;28;20230;-81
2022/04/11 05:14:39;;;;;;;3.80;3.53;;;;;;;5.50;100.00;100145.22;5071817;28;20191;-81
2022/04/11 05:17:06;;;;;;;5.00;4.50;;;;;;;5.61;100.00;100155.88;5072080;28;20276;-81
2022/04/11 05:19:32;;;;;;;6.97;6.27;;;;;;;5.79;100.00;100141.97;5072649;28;20222;-80
2022/04/11 05:22:01;;;;;;;9.13;8.07;;;;;;;6.26;100.00;100155.63;5072057;28;20195;-80
2022/04/11 05:24:28;;;;;;;11.53;8.37;;;;;;;6.15;100.00;100157.84;5072253;28;20194;-81
2022/04/11 05:26:54;;;;;;;4.60;4.20;;;;;;;6.22;100.00;100161.50;5072303;28;20206;-79
2022/04/11 05:29:21;;;;;;;4.37;4.07;;;;;;;5.74;100.00;100119.50;5072293;28;20202;-81
2022/04/11 05:31:48;;;;;;;7.57;6.33;;;;;;;6.06;100.00;100166.97;5072098;28;20234;-81
2022/04/11 05:34:15;;;;;;;4.33;3.93;;;;;;;6.04;100.00;100154.03;5037207;28;20671;-80
2022/04/11 05:36:41;;;;;;;3.70;3.40;;;;;;;6.36;100.00;100168.84;5071793;28;20678;-79
2022/04/11 05:39:10;;;;;;;3.00;2.80;;;;;;;6.31;100.00;100149.78;5071534;28;20252;-78
2022/04/11 05:41:36;;;;;;;2.60;2.37;;;;;;;6.46;100.00;100178.63;5020250;28;20206;-80
2022/04/11 05:44:03;;;;;;;2.70;2.50;;;;;;;6.61;100.00;100185.09;5036334;28;20246;-78
2022/04/11 05:46:30;;;;;;;2.10;2.00;;;;;;;6.44;100.00;100171.69;5016573;28;20269;-79
2022/04/11 05:48:57;;;;;;;2.57;2.47;;;;;;;6.08;100.00;100155.00;5054452;28;20202;-78
2022/04/11 05:51:25;;;;;;;2.07;1.90;;;;;;;6.31;100.00;100174.69;5071350;28;20229;-77
2022/04/11 05:53:52;;;;;;;2.70;2.47;;;;;;;6.42;100.00;100183.66;5071040;28;20230;-80
2022/04/11 05:56:20;;;;;;;1.50;1.40;;;;;;;6.65;100.00;100177.53;5071418;28;20195;-79
2022/04/11 05:58:47;;;;;;;2.93;2.67;;;;;;;6.49;100.00;100183.88;5071941;28;20260;-82
2022/04/11 06:01:14;;;;;;;3.80;3.00;;;;;;;6.15;100.00;100146.66;5071416;28;20213;-80
2022/04/11 06:03:40;;;;;;;3.40;2.90;;;;;;;6.39;100.00;100184.41;5070875;28;20685;-81
2022/04/11 06:06:08;;;;;;;3.77;2.63;;;;;;;6.33;100.00;100155.00;5018952;28;20199;-80
2022/04/11 06:08:35;;;;;;;2.90;2.67;;;;;;;6.52;100.00;100189.97;5070597;28;20190;-80
2022/04/11 06:11:02;;;;;;;2.30;2.10;;;;;;;6.63;100.00;100178.31;5070430;28;20206;-81
2022/04/11 06:13:30;;;;;;;2.33;2.23;;;;;;;6.67;100.00;100173.28;5070607;28;20203;-79
2022/04/11 06:15:58;;;;;;;4.87;3.57;;;;;;;6.95;100.00;100177.63;5070650;28;20235;-79
2022/04/11 06:18:25;;;;;;;2.23;2.13;;;;;;;6.88;100.00;100140.44;5070490;28;20199;-80
2022/04/11 06:20:52;;;;;;;3.00;2.70;;;;;;;7.14;100.00;100177.31;5070777;28;20203;-80
2022/04/11 06:23:19;;;;;;;2.20;2.10;;;;;;;7.24;100.00;100187.09;5070764;28;20652;-80
2022/04/11 06:25:45;;;;;;;2.60;2.40;;;;;;;7.10;100.00;100183.22;5070574;28;20202;-80
2022/04/11 06:28:12;;;;;;;2.15;2.05;;;;;;;7.19;100.00;100182.63;5070556;28;20198;-79
2022/04/11 06:30:40;;;;;;;1.80;1.80;;;;;;;7.50;100.00;100185.28;5070532;28;20260;-80
2022/04/11 06:33:07;;;;;;;2.53;2.33;;;;;;;7.15;100.00;100178.22;5070479;28;20234;-80
2022/04/11 06:35:34;;;;;;;4.13;3.17;;;;;;;7.04;100.00;100177.00;5070970;28;20202;-80
2022/04/11 06:38:01;;;;;;;2.80;2.33;;;;;;;7.23;100.00;100182.78;5051833;28;20195;-80
2022/04/11 06:40:27;;;;;;;3.33;2.33;;;;;;;7.32;100.00;100179.56;5070824;28;20268;-80
2022/04/11 06:42:54;;;;;;;2.00;1.90;;;;;;;7.14;100.00;100190.22;5070329;28;20206;-81
2022/04/11 06:45:21;;;;;;;22.87;12.33;;;;;;;7.41;100.00;100178.16;5070579;28;20202;-81
2022/04/11 06:47:49;;;;;;;33.13;15.37;;;;;;;7.55;100.00;100162.19;5070199;28;20203;-81
2022/04/11 06:50:16;;;;;;;7.10;5.13;;;;;;;7.81;100.00;100193.03;5070196;28;20217;-81
2022/04/11 06:52:43;;;;;;;8.93;6.93;;;;;;;7.82;100.00;100196.50;5051640;28;20229;-81
2022/04/11 06:55:10;;;;;;;3.70;3.30;;;;;;;7.92;100.00;100206.25;5018768;28;20256;-81
2022/04/11 06:57:37;;;;;;;2.42;2.22;;;;;;;7.52;100.00;100187.91;5070235;28;20203;-82
2022/04/11 07:00:04;;;;;;;5.72;5.18;;;;;;;7.84;100.00;100200.00;5070358;28;20207;-81
2022/04/11 07:02:31;;;;;;;3.78;3.50;;;;;;;7.74;100.00;100196.28;5070183;28;20229;-81
2022/04/11 07:04:59;;;;;;;7.80;3.30;;;;;;;7.61;100.00;100203.63;5073979;28;20436;-81
2022/04/11 07:07:26;;;;;;;4.95;4.45;;;;;;;7.60;100.00;100210.50;5074179;28;20201;-81
2022/04/11 07:09:53;;;;;;;3.45;3.15;;;;;;;7.57;100.00;100187.19;5074044;28;20202;-81
2022/04/11 07:12:20;;;;;;;7.00;3.63;;;;;;;7.83;100.00;100212.03;5074086;28;20226;-80
2022/04/11 07:14:46;;;;;;;3.90;3.43;;;;;;;7.79;100.00;100217.06;5074026;28;20195;-81
2022/04/11 07:17:13;;;;;;;3.05;2.10;;;;;;;7.91;100.00;100191.59;5073987;28;20241;-81
2022/04/11 07:19:40;;;;;;;7.13;4.25;;;;;;;8.31;100.00;100211.66;5074068;28;20202;-80
2022/04/11 07:22:08;;;;;;;3.63;3.33;;;;;;;8.32;100.00;100216.84;5074068;28;20198;-80
2022/04/11 07:24:37;;;;;;;4.68;3.35;;;;;;;8.57;100.00;100230.38;5073988;28;20613;-80
2022/04/11 07:27:06;;;;;;;3.20;3.00;;;;;;;8.46;100.00;100225.81;5073901;28;20268;-81
2022/04/11 07:29:33;;;;;;;4.78;3.70;;;;;;;8.50;100.00;100228.47;5073918;28;20195;-80
2022/04/11 07:32:00;;;;;;;2.83;2.08;;;;;;;8.33;100.00;100236.69;5073620;28;20230;-79
2022/04/11 07:34:27;;;;;;;2.55;2.45;;;;;;;8.60;100.00;100215.81;5038645;28;20615;-80
2022/04/11 07:36:54;;;;;;;2.35;2.20;;;;;;;8.60;100.00;100238.19;5074055;28;20199;-83
2022/04/11 07:39:23;;;;;;;3.20;3.00;;;;;;;8.76;100.00;100242.94;5073891;28;20574;-81
2022/04/11 07:41:50;;;;;;;2.22;2.08;;;;;;;8.58;100.00;100252.81;5073782;28;20222;-82
2022/04/11 07:44:17;;;;;;;3.08;2.47;;;;;;;8.73;100.00;100240.28;5073686;28;20191;-81
2022/04/11 07:46:43;;;;;;;6.43;3.08;;;;;;;9.02;100.00;100244.44;5073406;28;20202;-82
2022/04/11 07:49:10;;;;;;;4.13;2.80;;;;;;;9.14;100.00;100255.06;5022054;28;20203;-80
2022/04/11 07:51:37;;;;;;;5.55;5.00;;;;;;;9.01;100.00;100229.75;5073320;28;20199;-79
2022/04/11 07:54:04;;;;;;;3.15;2.85;;;;;;;9.45;100.00;100251.47;5073511;28;20202;-79
2022/04/11 07:56:32;;;;;;;2.95;2.75;;;;;;;9.34;100.00;100225.38;5073529;28;20670;-79
2022/04/11 07:58:59;;;;;;;2.65;2.35;;;;;;;9.27;100.00;100233.84;5073380;28;20206;-77
2022/04/11 08:01:28;;;;;;;4.82;2.45;;;;;;;10.26;100.00;100264.41;5073818;28;20276;-78
2022/04/11 08:03:55;;;;;;;3.88;2.10;;;;;;;9.75;100.00;100274.53;5073241;28;20599;-80
2022/04/11 08:06:22;;;;;;;2.20;2.10;;;;;;;9.71;100.00;100272.72;5073087;28;20203;-79
2022/04/11 08:08:48;;;;;;;2.67;2.47;;;;;;;9.65;100.00;100257.06;5073448;28;20267;-79
2022/04/11 08:11:16;;;;;;;1.48;1.40;;;;;;;9.59;100.00;100285.44;5073300;28;20271;-80
2022/04/11 08:13:44;;;;;;;4.57;2.28;;;;;;;9.55;100.00;100266.38;5073094;28;20280;-79
2022/04/11 08:16:11;;;;;;;1.90;1.80;;;;;;;9.83;100.00;100285.94;5072235;28;20241;-76
2022/04/11 08:18:38;;;;;;;1.58;1.58;;;;;;;9.76;100.00;100291.84;5072917;28;20637;-76
2022/04/11 08:21:06;;;;;;;1.73;1.73;;;;;;;9.89;100.00;100268.81;5072920;28;20198;-79
2022/04/11 08:23:32;;;;;;;2.03;1.92;;;;;;;10.17;100.00;100265.09;5072836;28;20231;-78
2022/04/11 08:25:59;;;;;;;2.42;2.22;;;;;;;10.51;100.00;100294.25;5037285;28;20638;-79
2022/04/11 08:28:26;;;;;;;2.85;1.80;;;;;;;10.11;100.00;100285.66;5078172;28;20202;-79
2022/04/11 08:30:54;;;;;;;2.97;2.78;;;;;;;10.76;100.00;100293.84;5076238;28;20647;-79
2022/04/11 08:33:21;;;;;;;9.07;4.95;;;;;;;10.65;100.00;100301.44;5074811;28;20238;-80
2022/04/11 08:35:48;;;;;;;5.22;3.75;;;;;;;10.76;100.00;100293.84;5073643;28;20592;-79
2022/04/11 08:38:15;;;;;;;7.45;5.53;;;;;;;9.98;100.00;100311.28;5073518;28;20199;-79
2022/04/11 08:40:41;;;;;;;3.30;3.10;;;;;;;10.13;100.00;100289.16;5020570;28;20206;-79
2022/04/11 08:43:11;;;;;;;9.45;7.13;;;;;;;10.30;100.00;100287.81;5020824;28;20199;-80
2022/04/11 08:45:38;;;;;;;6.32;5.35;;;;;;;10.14;100.00;100288.34;5072242;28;20191;-79
2022/04/11 08:48:07;;;;;;;3.20;2.90;;;;;;;10.75;100.00;100282.59;5072112;28;20195;-78
2022/04/11 08:50:33;;;;;;;6.28;3.42;;;;;;;11.77;100.00;100302.41;5072149;28;20646;-79
2022/04/11 08:53:00;;;;;;;1.80;1.70;;;;;;;11.54;100.00;100315.00;5072248;28;20287;-79
2022/04/11 08:55:27;;;;;;;2.17;2.08;;;;;;;11.51;100.00;100308.91;5020498;28;20217;-80
2022/04/11 08:57:54;;;;;;;2.22;1.95;;;;;;;11.36;100.00;100318.22;5072136;28;20199;-80
2022/04/11 09:00:21;;;;;;;3.55;1.92;;;;;;;10.77;100.00;100295.59;5072186;28;20221;-80
2022/04/11 09:02:48;;;;;;;2.20;2.10;;;;;;;10.76;100.00;100306.81;5072460;28;20202;-79
2022/04/11 09:05:22;;;;;;;4.20;3.45;;;;;;;10.97;100.00;100325.34;5072123;28;20256;-79
2022/04/11 09:07:50;;;;;;;5.65;3.75;;;;;;;11.43;100.00;100330.44;5071826;28;20624;-79
2022/04/11 09:10:22;;;;;;;3.30;3.00;;;;;;;11.02;100.00;100261.44;5072070;28;20199;-79
2022/04/11 09:12:50;;;;;;;7.22;4.40;;;;;;;11.44;100.00;100326.13;5071960;28;20790;-79
2022/04/11 09:15:18;;;;;;;3.75;2.95;;;;;;;11.55;100.00;100321.09;5071611;28;20231;-78
2022/04/11 09:17:46;;;;;;;5.43;3.88;;;;;;;11.62;100.00;100317.72;5071670;28;20194;-77
2022/04/11 09:20:15;;;;;;;4.55;3.42;;;;;;;11.47;100.00;100312.28;5071872;28;20199;-80
2022/04/11 09:22:43;;;;;;;5.00;4.50;;;;;;;11.26;100.00;100325.81;5071708;28;20245;-78
2022/04/11 09:25:12;;;;;;;5.78;3.45;;;;;;;11.63;100.00;100290.91;5071746;28;20203;-80
2022/04/11 09:27:39;;;;;;;5.57;3.35;;;;;;;11.44;100.00;100288.03;5071190;28;20206;-79
2022/04/11 09:30:27;;;;;;;2.30;2.17;;;;;;;11.66;100.00;100345.50;5072075;28;20199;-78
2022/04/11 09:33:00;;;;;;;2.83;2.53;;;;;;;11.38;100.00;100326.88;5071290;28;20745;-80
2022/04/11 09:35:28;;;;;;;1.67;1.58;;;;;;;11.14;100.00;100349.84;5071678;28;20262;-78
2022/04/11 09:38:13;;;;;;;8.23;2.80;;;;;;;11.30;100.00;100320.72;5071265;28;20194;-79
2022/04/11 09:40:42;;;;;;;3.72;2.95;;;;;;;11.22;100.00;100337.00;5071254;28;20191;-77
2022/04/11 09:43:10;;;;;;;3.72;3.25;;;;;;;11.34;100.00;100327.66;5036146;28;20195;-79
2022/04/11 09:45:44;;;;;;;4.13;3.00;;;;;;;11.48;100.00;100348.69;5071361;28;20195;-79
2022/04/11 09:48:12;;;;;;;2.92;2.70;;;;;;;11.62;100.00;100343.69;5071210;28;20202;-78
2022/04/11 09:50:38;;;;;;;2.08;1.98;;;;;;;11.84;100.00;100336.25;5071349;28;20229;-82
2022/04/11 09:53:15;;;;;;;2.63;2.42;;;;;;;12.29;100.00;100343.78;5071197;28;20226;-82
2022/04/11 09:55:44;;;;;;;2.67;2.47;;;;;;;11.44;100.00;100308.81;5052729;28;20249;-80
2022/04/11 09:58:11;;;;;;;3.10;2.90;;;;;;;11.64;100.00;100353.25;5071202;28;20198;-82
2022/04/11 10:00:39;;;;;;;2.55;2.35;;;;;;;11.61;100.00;100352.31;5071080;28;20194;-80
2022/04/11 10:03:07;;;;;;;2.60;2.30;;;;;;;11.65;100.00;100344.63;5070864;28;20219;-79
2022/04/11 10:05:34;;;;;;;4.05;3.15;;;;;;;11.86;100.00;100347.56;5070817;28;20198;-79
2022/04/11 10:08:04;;;;;;;3.20;2.50;;;;;;;12.21;100.00;100345.41;5070669;28;20238;-79
2022/04/11 10:10:34;;;;;;;2.88;2.58;;;;;;;12.46;100.00;100351.78;5070484;28;20593;-79
2022/04/11 10:13:01;;;;;;;3.63;2.40;;;;;;;12.23;100.00;100337.66;5070876;28;20219;-79
2022/04/11 10:15:28;;;;;;;2.10;1.88;;;;;;;11.95;100.00;100351.13;5051889;28;20601;-80
2022/04/11 10:17:57;;;;;;;2.40;2.28;;;;;;;12.39;100.00;100348.25;5070765;28;20628;-79
2022/04/11 10:20:28;;;;;;;2.50;2.30;;;;;;;12.57;100.00;100341.50;5052119;28;20235;-80
2022/04/11 10:22:58;;;;;;;2.70;2.50;;;;;;;12.60;100.00;100345.00;5070582;28;20206;-80
2022/04/11 10:25:27;;;;;;;7.15;3.40;;;;;;;12.91;100.00;100348.81;5071112;28;20264;-81
2022/04/11 10:28:19;;;;;;;2.25;2.15;;;;;;;12.83;100.00;100340.06;5070485;28;20971;-79
2022/04/11 10:31:03;;;;;;;2.45;2.25;;;;;;;12.30;100.00;100327.34;5070653;28;20589;-79
2022/04/11 10:33:43;;;;;;;1.52;1.45;;;;;;;12.64;100.00;100340.72;5070450;28;20268;-81
2022/04/11 10:36:29;;;;;;;3.28;2.50;;;;;;;12.53;100.00;100344.91;5071035;28;20198;-79
2022/04/11 10:39:29;;;;;;;2.88;2.60;;;;;;;12.81;100.00;100336.53;5070209;28;20709;-79
2022/04/11 10:42:10;;;;;;;2.88;2.67;;;;;;;13.20;100.00;100334.34;5070397;28;20702;-80
2022/04/11 10:44:40;;;;;;;2.72;2.53;;;;;;;12.64;100.00;100336.38;5070624;28;20205;-80
2022/04/11 10:47:37;;;;;;;3.38;3.00;;;;;;;12.11;100.00;100337.47;5071141;28;20680;-78
2022/04/11 10:50:23;;;;;;;2.88;2.67;;;;;;;11.83;100.00;100307.66;5070817;28;20195;-78
2022/04/11 10:53:09;;;;;;;2.78;2.58;;;;;;;12.17;100.00;100330.63;5070801;28;20264;-80
2022/04/11 10:55:36;;;;;;;3.10;2.90;;;;;;;12.29;100.00;100340.31;4988488;28;20208;-81
2022/04/11 10:58:04;;;;;;;4.30;3.30;;;;;;;12.56;100.00;100325.00;4988636;28;20217;-79
2022/04/11 11:00:33;;;;;;;4.40;3.00;;;;;;;12.19;100.00;100328.94;4988687;28;20260;-80
2022/04/11 11:03:13;;;;;;;3.50;3.20;;;;;;;12.19;100.00;100317.66;4988656;28;20288;-80
2022/04/11 11:05:43;;;;;;;3.05;2.85;;;;;;;11.95;100.00;100331.19;4988753;28;20279;-79
2022/04/11 11:08:28;;;;;;;2.60;2.50;;;;;;;11.74;100.00;100330.91;4988942;28;20245;-80
2022/04/11 11:10:56;;;;;;;3.00;2.80;;;;;;;11.99;100.00;100312.19;4931348;29;20203;-81
2022/04/11 11:13:28;;;;;;;3.67;2.72;;;;;;;12.14;100.00;100289.00;4931365;29;20231;-79
2022/04/11 11:15:57;;;;;;;3.85;2.67;;;;;;;12.61;100.00;100318.16;4930826;29;20270;-79
2022/04/11 11:18:24;;;;;;;3.10;2.80;;;;;;;12.80;99.75;100324.41;4931616;29;20696;-80
2022/04/11 11:20:52;;;;;;;3.55;2.50;;;;;;;13.07;94.16;100322.06;4931778;29;20693;-81
2022/04/11 11:23:31;;;;;;;8.50;3.40;;;;;;;12.96;98.99;100321.09;4900172;29;20311;-80
2022/04/11 11:26:09;;;;;;;2.53;2.33;;;;;;;13.06;91.31;100317.69;4931056;29;20286;-81
2022/04/11 11:28:36;;;;;;;2.80;2.60;;;;;;;12.55;87.08;100240.06;4930594;29;20735;-79